Time;durP1;ratioP1;P1;durP2;ratioP2;P2;SDS_P1;SDS_P2;PMS_P1;PMS_P2;Temp;Humidity;BMP_temperature;BMP_pressure;BME280_temperature;BME280_humidity;BME280_pressure;Samples;Min_cycle;Max_cycle;Signal;HPM_P1;HPM_P2
2021/09/22 00:01:29;;;;;;;5.20;4.80;;;;;;;7.41;93.09;96680.56;5018843;28;20227;-70
2021/09/22 00:03:58;;;;;;;3.80;3.50;;;;;;;7.39;93.69;96686.91;5017938;28;20224;-70
2021/09/22 00:06:28;;;;;;;3.87;3.63;;;;;;;7.38;93.36;96683.44;5020190;28;20235;-69
2021/09/22 00:08:57;;;;;;;4.17;3.87;;;;;;;7.41;93.68;96685.00;5015855;28;20230;-70
2021/09/22 00:11:26;;;;;;;4.63;4.33;;;;;;;7.40;93.31;96688.56;5019380;28;20251;-70
2021/09/22 00:13:53;;;;;;;4.40;4.13;;;;;;;7.39;93.79;96684.28;5017598;28;20821;-70
2021/09/22 00:16:22;;;;;;;4.07;3.80;;;;;;;7.38;93.34;96682.63;4999832;28;20254;-70
2021/09/22 00:18:50;;;;;;;3.00;2.90;;;;;;;7.40;93.37;96675.44;5015413;28;20234;-70
2021/09/22 00:21:20;;;;;;;3.30;3.10;;;;;;;7.33;92.80;96679.59;5016491;28;20220;-70
2021/09/22 00:23:48;;;;;;;3.30;3.10;;;;;;;7.32;92.95;96670.06;5015714;28;20303;-69
2021/09/22 00:26:17;;;;;;;2.83;2.73;;;;;;;7.25;92.25;96674.22;5018654;28;20584;-70
2021/09/22 00:28:45;;;;;;;4.50;4.30;;;;;;;7.18;91.98;96673.09;5019367;28;20223;-70
2021/09/22 00:31:13;;;;;;;3.27;3.13;;;;;;;7.14;92.15;96669.94;5018411;28;20242;-70
2021/09/22 00:33:42;;;;;;;3.97;3.67;;;;;;;7.13;92.44;96674.34;5001503;28;20753;-70
2021/09/22 00:36:10;;;;;;;4.50;4.20;;;;;;;7.12;92.59;96667.41;5013376;28;20221;-70
2021/09/22 00:38:40;;;;;;;4.07;3.87;;;;;;;7.13;92.91;96679.59;5012822;28;20300;-70
2021/09/22 00:41:08;;;;;;;3.90;3.70;;;;;;;7.14;93.25;96664.69;5016439;28;20212;-70
2021/09/22 00:43:36;;;;;;;3.83;3.63;;;;;;;7.17;93.27;96674.06;5002677;28;20691;-70
2021/09/22 00:46:05;;;;;;;5.27;4.87;;;;;;;7.17;93.31;96674.06;5001294;28;20282;-70
2021/09/22 00:48:34;;;;;;;4.80;4.50;;;;;;;7.20;93.24;96668.53;5019561;28;20604;-70
2021/09/22 00:51:07;;;;;;;4.00;3.80;;;;;;;7.24;93.17;96667.31;5004176;28;20795;-70
2021/09/22 00:53:37;;;;;;;4.47;4.27;;;;;;;7.26;93.42;96673.22;5020036;28;20858;-70
2021/09/22 00:56:07;;;;;;;3.93;3.63;;;;;;;7.21;93.32;96667.56;5006420;28;20224;-70
2021/09/22 00:58:35;;;;;;;3.30;3.10;;;;;;;7.21;93.08;96664.94;5004590;28;20232;-70
2021/09/22 01:01:04;;;;;;;3.40;3.20;;;;;;;7.22;93.13;96674.47;5022001;28;20228;-70
2021/09/22 01:03:33;;;;;;;4.90;4.67;;;;;;;7.23;93.44;96661.22;5003510;28;20717;-70
2021/09/22 01:06:02;;;;;;;4.60;4.30;;;;;;;7.23;93.18;96657.78;5001646;28;20307;-70
2021/09/22 01:08:31;;;;;;;5.40;5.00;;;;;;;7.21;93.26;96665.75;5020340;28;20216;-70
2021/09/22 01:11:00;;;;;;;4.43;4.13;;;;;;;7.19;93.14;96672.13;5019905;28;20228;-70
2021/09/22 01:13:29;;;;;;;3.20;3.03;;;;;;;7.19;93.40;96666.88;5001608;28;20224;-69
2021/09/22 01:15:59;;;;;;;4.23;4.03;;;;;;;7.17;92.91;96666.19;5001020;28;20331;-70
2021/09/22 01:18:28;;;;;;;5.00;4.70;;;;;;;7.17;93.05;96663.56;5003237;28;20218;-70
2021/09/22 01:20:58;;;;;;;5.10;4.80;;;;;;;7.16;93.17;96664.53;5011938;28;20221;-70
2021/09/22 01:23:29;;;;;;;3.93;3.73;;;;;;;7.15;93.26;96670.75;5003427;28;20216;-69
2021/09/22 01:26:03;;;;;;;4.30;3.90;;;;;;;7.13;93.07;96679.59;4999139;28;20319;-70
2021/09/22 01:28:33;;;;;;;3.13;2.93;;;;;;;7.10;93.19;96674.59;5021218;28;20303;-70
2021/09/22 01:31:05;;;;;;;3.00;2.90;;;;;;;7.11;92.93;96676.25;4999049;28;20222;-70
2021/09/22 01:33:36;;;;;;;2.67;2.53;;;;;;;7.05;92.77;96671.56;5000944;28;20228;-69
2021/09/22 01:36:13;;;;;;;2.93;2.73;;;;;;;7.02;92.68;96666.59;5002005;28;20250;-70
2021/09/22 01:38:45;;;;;;;3.17;2.97;;;;;;;7.00;92.69;96663.28;5007161;28;20219;-70
2021/09/22 01:41:16;;;;;;;3.10;2.90;;;;;;;7.00;92.84;96659.81;5002072;28;20217;-69
2021/09/22 01:44:08;;;;;;;3.17;3.03;;;;;;;6.99;92.82;96672.13;4997035;28;20213;-70
2021/09/22 01:47:01;;;;;;;3.13;2.93;;;;;;;6.99;92.84;96674.75;5005170;28;20616;-70
2021/09/22 01:49:49;;;;;;;2.40;2.30;;;;;;;6.94;92.50;96669.06;5019424;28;20223;-70
2021/09/22 01:52:17;;;;;;;3.30;3.10;;;;;;;6.89;92.07;96671.28;5004835;28;20220;-70
2021/09/22 01:55:03;;;;;;;2.60;2.50;;;;;;;6.83;91.77;96667.41;5002816;28;20223;-69
2021/09/22 01:57:31;;;;;;;2.43;2.33;;;;;;;6.82;91.06;96664.91;5003564;28;20220;-70
2021/09/22 01:59:59;;;;;;;2.87;2.77;;;;;;;6.76;91.06;96655.78;5001177;28;20227;-69
2021/09/22 02:02:41;;;;;;;4.27;3.97;;;;;;;6.66;91.41;96669.84;5017581;28;20228;-69
2021/09/22 02:05:24;;;;;;;4.30;4.00;;;;;;;6.52;92.56;96674.50;5002488;28;20304;-70
2021/09/22 02:08:05;;;;;;;4.03;3.73;;;;;;;6.49;92.94;96680.03;4998596;28;20230;-70
2021/09/22 02:10:36;;;;;;;6.00;5.60;;;;;;;6.50;92.82;96688.72;5021689;28;20280;-69
2021/09/22 02:13:05;;;;;;;4.57;4.27;;;;;;;6.53;92.93;96681.41;5001427;28;20269;-70
2021/09/22 02:15:36;;;;;;;4.90;4.60;;;;;;;6.49;93.08;96672.16;4994837;28;20223;-70
2021/09/22 02:18:23;;;;;;;5.33;4.93;;;;;;;6.50;92.79;96665.97;5014142;28;20238;-69
2021/09/22 02:20:54;;;;;;;5.73;5.43;;;;;;;6.47;92.88;96679.31;4995895;28;20211;-69
2021/09/22 02:23:26;;;;;;;5.70;5.30;;;;;;;6.40;92.96;96667.72;5001042;28;20228;-69
2021/09/22 02:26:01;;;;;;;5.73;5.33;;;;;;;6.34;92.91;96660.38;5001791;28;20231;-69
2021/09/22 02:28:32;;;;;;;6.87;6.30;;;;;;;6.20;93.49;96663.34;4998919;28;20224;-70
2021/09/22 02:31:00;;;;;;;6.00;5.60;;;;;;;6.19;93.99;96659.91;5015177;28;20764;-69
2021/09/22 02:33:36;;;;;;;5.47;5.07;;;;;;;6.20;93.88;96661.56;4998211;28;20671;-70
2021/09/22 02:36:05;;;;;;;6.33;5.80;;;;;;;6.17;93.92;96664.47;5015561;28;20219;-69
2021/09/22 02:38:50;;;;;;;6.83;5.93;;;;;;;6.11;93.91;96658.91;5002627;28;20229;-70
2021/09/22 02:41:20;;;;;;;5.40;5.10;;;;;;;6.05;94.24;96664.69;5018234;28;20225;-70
2021/09/22 02:43:48;;;;;;;6.80;6.23;;;;;;;6.10;94.90;96675.59;5018050;28;20227;-70
2021/09/22 02:46:17;;;;;;;7.33;6.73;;;;;;;6.19;95.17;96669.56;5000466;28;20247;-70
2021/09/22 02:48:57;;;;;;;5.87;5.37;;;;;;;6.26;94.87;96673.31;5001658;28;20604;-70
2021/09/22 02:51:25;;;;;;;5.93;5.43;;;;;;;6.30;94.77;96673.88;5001773;28;20237;-69
2021/09/22 02:53:53;;;;;;;5.00;4.73;;;;;;;6.36;94.69;96666.31;4996499;28;20236;-69
2021/09/22 02:56:23;;;;;;;7.23;6.37;;;;;;;6.42;94.70;96668.41;5001949;28;20631;-70
2021/09/22 02:58:51;;;;;;;6.93;6.43;;;;;;;6.46;94.73;96671.59;5003841;28;20729;-70
2021/09/22 03:01:20;;;;;;;6.23;5.73;;;;;;;6.45;94.46;96668.13;5001214;28;20891;-69
2021/09/22 03:03:49;;;;;;;6.07;5.63;;;;;;;6.46;94.47;96664.56;5002336;28;20250;-70
2021/09/22 03:06:18;;;;;;;5.97;5.43;;;;;;;6.45;94.46;96665.53;5018964;28;20604;-70
2021/09/22 03:08:46;;;;;;;5.83;5.43;;;;;;;6.46;94.55;96675.03;5017874;28;20224;-70
2021/09/22 03:11:14;;;;;;;5.90;5.50;;;;;;;6.49;94.63;96669.56;4998173;28;20299;-69
2021/09/22 03:13:43;;;;;;;6.07;5.57;;;;;;;6.53;94.71;96664.84;4998709;28;20211;-69
2021/09/22 03:16:11;;;;;;;5.20;4.90;;;;;;;6.55;94.66;96661.13;4996237;28;20231;-70
2021/09/22 03:18:40;;;;;;;5.87;5.47;;;;;;;6.59;94.84;96658.25;4998155;28;20219;-70
2021/09/22 03:21:11;;;;;;;5.33;4.93;;;;;;;6.62;94.57;96657.97;4998242;28;20442;-70
2021/09/22 03:23:40;;;;;;;6.57;6.03;;;;;;;6.64;94.79;96663.91;4997741;28;20216;-70
2021/09/22 03:26:08;;;;;;;5.63;5.20;;;;;;;6.69;94.83;96669.59;5014100;28;20398;-69
2021/09/22 03:28:39;;;;;;;5.80;5.40;;;;;;;6.72;94.86;96674.56;4997841;28;20307;-70
2021/09/22 03:31:08;;;;;;;5.77;5.37;;;;;;;6.73;94.77;96676.22;4997903;28;20298;-69
2021/09/22 03:33:36;;;;;;;6.50;6.00;;;;;;;6.73;94.92;96666.56;5000664;28;20227;-69
2021/09/22 03:36:05;;;;;;;6.43;5.93;;;;;;;6.73;94.79;96681.47;5017394;28;20247;-70
2021/09/22 03:38:34;;;;;;;5.37;4.97;;;;;;;6.73;94.59;96686.72;4999803;28;20225;-69
2021/09/22 03:41:02;;;;;;;4.47;4.17;;;;;;;6.71;94.57;96684.22;5017616;28;20636;-69
2021/09/22 03:43:31;;;;;;;5.57;5.17;;;;;;;6.72;94.20;96685.88;5001376;28;20228;-69
2021/09/22 03:46:00;;;;;;;5.70;5.23;;;;;;;6.70;94.51;96687.81;5000575;28;20590;-69
2021/09/22 03:48:31;;;;;;;5.53;5.20;;;;;;;6.69;94.29;96682.72;4998573;28;20239;-69
2021/09/22 03:50:59;;;;;;;4.90;4.60;;;;;;;6.67;94.21;96688.06;5016305;28;20231;-70
2021/09/22 03:53:39;;;;;;;5.23;4.83;;;;;;;6.66;93.71;96686.41;4998884;28;20270;-70
2021/09/22 03:56:08;;;;;;;5.63;5.23;;;;;;;6.65;93.62;96691.78;5016122;28;20246;-70
2021/09/22 03:58:36;;;;;;;5.27;4.87;;;;;;;6.63;93.79;96693.72;5001250;28;20696;-70
2021/09/22 04:01:06;;;;;;;4.90;4.53;;;;;;;6.64;93.88;96700.63;4998956;28;20668;-70
2021/09/22 04:03:36;;;;;;;5.13;4.73;;;;;;;6.62;93.10;96699.94;4996656;28;20300;-70
2021/09/22 04:06:04;;;;;;;4.47;4.13;;;;;;;6.54;92.53;96690.94;5002877;28;20247;-70
2021/09/22 04:08:33;;;;;;;4.30;4.10;;;;;;;6.47;92.75;96695.06;5013836;28;20689;-70
2021/09/22 04:11:01;;;;;;;4.97;4.57;;;;;;;6.39;92.53;96691.44;4996016;28;20227;-69
2021/09/22 04:13:30;;;;;;;3.80;3.60;;;;;;;6.33;92.55;96694.59;4999201;28;20228;-69
2021/09/22 04:15:58;;;;;;;2.63;2.53;;;;;;;6.24;92.49;96690.97;4992502;28;20592;-70
2021/09/22 04:18:27;;;;;;;3.47;3.27;;;;;;;6.14;92.28;96693.56;4997975;28;21300;-69
2021/09/22 04:20:56;;;;;;;3.13;2.93;;;;;;;6.07;91.85;96688.97;4995462;28;20223;-69
2021/09/22 04:23:25;;;;;;;3.43;3.13;;;;;;;6.01;91.48;96692.09;5004235;28;20277;-69
2021/09/22 04:25:53;;;;;;;3.43;3.23;;;;;;;5.91;91.65;96695.50;4995278;28;20667;-70
2021/09/22 04:28:22;;;;;;;3.50;3.23;;;;;;;5.87;91.53;96691.47;4998214;28;20224;-70
2021/09/22 04:31:09;;;;;;;3.40;3.20;;;;;;;5.83;91.91;96687.41;5012923;28;20276;-70
2021/09/22 04:33:55;;;;;;;3.70;3.47;;;;;;;5.81;91.58;96689.34;5019547;28;20231;-70
2021/09/22 04:36:43;;;;;;;2.30;2.20;;;;;;;5.76;91.14;96681.06;5012211;28;20724;-70
2021/09/22 04:39:30;;;;;;;4.10;3.90;;;;;;;5.61;91.86;96688.41;5016474;28;20262;-69
2021/09/22 04:42:17;;;;;;;3.60;3.40;;;;;;;5.52;92.29;96688.34;5018843;28;20223;-69
2021/09/22 04:45:06;;;;;;;3.10;2.90;;;;;;;5.45;92.91;96688.00;5019662;28;20227;-68
2021/09/22 04:47:53;;;;;;;7.17;4.03;;;;;;;5.46;93.05;96683.59;5014890;28;20285;-67
2021/09/22 04:50:39;;;;;;;3.13;2.93;;;;;;;5.47;93.38;96686.09;5012288;28;20220;-67
2021/09/22 04:53:27;;;;;;;2.53;2.43;;;;;;;5.45;93.41;96679.31;5023141;28;20228;-67
2021/09/22 04:56:15;;;;;;;2.77;2.57;;;;;;;5.42;93.45;96681.25;5019342;28;20721;-68
2021/09/22 04:59:01;;;;;;;3.63;3.43;;;;;;;5.42;93.31;96689.09;5020617;28;20768;-68
2021/09/22 05:01:48;;;;;;;6.30;4.27;;;;;;;5.33;92.96;96695.09;5011167;28;20573;-68
2021/09/22 05:04:35;;;;;;;3.00;2.87;;;;;;;5.32;93.37;96693.44;5012348;28;20217;-67
2021/09/22 05:07:22;;;;;;;2.70;2.53;;;;;;;5.29;93.19;96682.38;5025363;28;20597;-68
2021/09/22 05:10:11;;;;;;;3.20;3.00;;;;;;;5.21;93.28;96688.25;5022404;28;20226;-67
2021/09/22 05:12:58;;;;;;;4.00;3.80;;;;;;;5.10;93.90;96688.28;5013280;28;20238;-68
2021/09/22 05:15:45;;;;;;;6.77;4.10;;;;;;;5.02;94.32;96693.28;5017039;28;20231;-67
2021/09/22 05:18:34;;;;;;;4.03;3.83;;;;;;;5.03;94.04;96697.56;5007192;28;20604;-67
2021/09/22 05:21:21;;;;;;;3.00;2.80;;;;;;;5.07;93.64;96691.97;5014932;28;20821;-67
2021/09/22 05:24:07;;;;;;;3.97;3.47;;;;;;;5.09;93.33;96691.84;5014761;28;20225;-68
2021/09/22 05:26:55;;;;;;;4.03;3.73;;;;;;;5.14;93.72;96705.41;5019357;28;20309;-67
2021/09/22 05:29:41;;;;;;;2.97;2.77;;;;;;;5.23;93.42;96695.97;5022230;28;20688;-67
2021/09/22 05:32:28;;;;;;;4.70;4.40;;;;;;;5.30;94.25;96704.97;5019783;28;20306;-68
2021/09/22 05:35:15;;;;;;;4.43;4.13;;;;;;;5.41;94.14;96708.38;5019111;28;20252;-68
2021/09/22 05:38:02;;;;;;;4.33;4.13;;;;;;;5.46;93.56;96715.00;5009527;28;20773;-67
2021/09/22 05:40:49;;;;;;;4.50;4.20;;;;;;;5.49;93.98;96717.41;5016920;28;20623;-68
2021/09/22 05:43:38;;;;;;;4.73;4.43;;;;;;;5.56;93.71;96716.75;5026158;28;20595;-68
2021/09/22 05:46:26;;;;;;;4.53;4.13;;;;;;;5.65;93.55;96728.25;5015275;28;20441;-67
2021/09/22 05:49:13;;;;;;;5.70;5.27;;;;;;;5.71;94.05;96720.72;5026189;28;20542;-68
2021/09/22 05:52:00;;;;;;;4.50;4.20;;;;;;;5.82;93.97;96722.44;5018024;28;20234;-67
2021/09/22 05:54:47;;;;;;;5.63;5.23;;;;;;;5.90;93.57;96721.78;5009156;28;20613;-68
2021/09/22 05:57:33;;;;;;;5.73;5.17;;;;;;;5.92;93.16;96728.59;5018213;28;20235;-68
2021/09/22 06:00:21;;;;;;;5.70;5.20;;;;;;;5.99;92.98;96714.03;5021567;28;20314;-68
2021/09/22 06:03:15;;;;;;;4.70;4.17;;;;;;;6.08;93.10;96709.78;4994670;28;20227;-68
2021/09/22 06:06:02;;;;;;;4.83;4.43;;;;;;;6.15;93.03;96707.50;5012900;28;20261;-67
2021/09/22 06:08:53;;;;;;;6.70;6.10;;;;;;;6.24;93.26;96709.31;5020600;28;20219;-67
2021/09/22 06:11:34;;;;;;;6.93;6.30;;;;;;;6.39;93.62;96713.22;5007282;28;20212;-67
2021/09/22 06:14:08;;;;;;;4.53;4.23;;;;;;;6.55;92.83;96720.59;5013239;28;20737;-68
2021/09/22 06:16:38;;;;;;;6.97;6.37;;;;;;;6.66;92.58;96717.88;5013537;28;20224;-67
2021/09/22 06:19:14;;;;;;;6.20;5.60;;;;;;;6.84;93.26;96716.28;4987554;28;20216;-68
2021/09/22 06:21:42;;;;;;;7.00;6.50;;;;;;;6.97;93.05;96720.47;4992813;28;20244;-68
2021/09/22 06:24:13;;;;;;;5.93;5.53;;;;;;;7.09;92.46;96720.19;4996083;28;20713;-68
2021/09/22 06:26:58;;;;;;;9.40;8.67;;;;;;;7.19;92.04;96714.94;4993310;28;20275;-68
2021/09/22 06:29:26;;;;;;;7.17;6.57;;;;;;;7.25;91.97;96717.03;5013692;28;20761;-67
2021/09/22 06:31:55;;;;;;;6.43;5.97;;;;;;;7.31;91.87;96724.34;4999182;28;20255;-68
2021/09/22 06:34:50;;;;;;;6.37;5.87;;;;;;;7.40;91.10;96717.44;4999047;28;20216;-68
2021/09/22 06:37:28;;;;;;;5.57;5.17;;;;;;;7.39;91.96;96723.66;4997187;28;20577;-68
2021/09/22 06:40:09;;;;;;;7.23;6.70;;;;;;;7.52;92.27;96720.78;4999960;28;20221;-68
2021/09/22 06:42:37;;;;;;;7.00;6.50;;;;;;;7.68;91.66;96721.88;4994947;28;20274;-68
2021/09/22 06:45:07;;;;;;;7.03;6.33;;;;;;;7.79;91.87;96731.41;5008132;28;20231;-68
2021/09/22 06:47:36;;;;;;;6.53;6.03;;;;;;;7.97;92.22;96731.53;5015350;28;20748;-68
2021/09/22 06:50:05;;;;;;;7.43;6.77;;;;;;;8.15;91.24;96734.25;5017313;28;20227;-68
2021/09/22 06:52:35;;;;;;;8.40;7.73;;;;;;;8.31;90.84;96725.75;5014710;28;20264;-68
2021/09/22 06:55:03;;;;;;;6.93;6.33;;;;;;;8.47;91.03;96723.38;5014966;28;20244;-68
2021/09/22 06:57:32;;;;;;;9.40;8.63;;;;;;;8.62;90.43;96729.00;5009284;28;20323;-68
2021/09/22 07:00:00;;;;;;;8.43;7.83;;;;;;;8.77;90.27;96724.88;5007203;28;20599;-68
2021/09/22 07:02:28;;;;;;;8.73;7.97;;;;;;;8.88;90.67;96718.63;5016035;28;20225;-68
2021/09/22 07:04:58;;;;;;;10.73;8.97;;;;;;;9.02;90.73;96720.72;5018574;28;20272;-68
2021/09/22 07:07:26;;;;;;;9.87;7.43;;;;;;;9.20;90.45;96721.59;4999536;28;20222;-69
2021/09/22 07:09:53;;;;;;;11.27;9.87;;;;;;;9.29;90.60;96731.22;5015994;28;20221;-68
2021/09/22 07:12:22;;;;;;;10.80;9.83;;;;;;;9.42;90.32;96738.78;5002952;28;20222;-68
2021/09/22 07:14:50;;;;;;;9.37;8.37;;;;;;;9.56;90.23;96738.22;5013051;28;20647;-68
2021/09/22 07:17:18;;;;;;;10.47;9.53;;;;;;;9.67;89.63;96729.25;5016742;28;20230;-68
2021/09/22 07:19:47;;;;;;;11.30;10.27;;;;;;;9.73;90.36;96735.75;5017797;28;20262;-68
2021/09/22 07:22:16;;;;;;;11.17;10.20;;;;;;;9.86;89.76;96734.34;5018861;28;20314;-68
2021/09/22 07:24:46;;;;;;;13.30;12.00;;;;;;;9.96;88.84;96743.00;5008327;28;20394;-69
2021/09/22 07:27:14;;;;;;;11.13;10.17;;;;;;;10.14;88.09;96742.16;5011001;28;20258;-68
2021/09/22 07:29:42;;;;;;;13.20;12.03;;;;;;;10.31;87.96;96728.09;5016098;28;20220;-69
2021/09/22 07:32:13;;;;;;;14.73;13.33;;;;;;;10.43;86.71;96737.44;4998147;28;20280;-69
2021/09/22 07:34:41;;;;;;;12.40;11.33;;;;;;;10.35;87.27;96739.19;5011391;28;20240;-69
2021/09/22 07:37:11;;;;;;;13.83;12.73;;;;;;;10.36;87.05;96730.31;5017863;28;20246;-69
2021/09/22 07:39:44;;;;;;;11.37;10.27;;;;;;;10.67;86.07;96739.34;5007719;28;20224;-69
2021/09/22 07:42:12;;;;;;;12.83;11.53;;;;;;;10.83;84.86;96738.63;5017658;28;20235;-69
2021/09/22 07:44:42;;;;;;;16.13;14.50;;;;;;;11.04;84.31;96738.19;5019243;28;20223;-69
2021/09/22 07:47:10;;;;;;;11.03;10.03;;;;;;;11.25;82.60;96740.41;5014681;28;20231;-68
2021/09/22 07:49:38;;;;;;;13.70;12.53;;;;;;;11.44;80.81;96736.66;5019706;28;20302;-68
2021/09/22 07:52:07;;;;;;;14.13;12.83;;;;;;;11.72;80.64;96737.19;5019291;28;20709;-69
2021/09/22 07:54:35;;;;;;;10.63;9.83;;;;;;;11.96;79.84;96742.50;4996052;28;20240;-68
2021/09/22 07:57:04;;;;;;;11.33;10.23;;;;;;;12.19;79.38;96748.78;5018447;28;20426;-68
2021/09/22 07:59:33;;;;;;;10.40;9.60;;;;;;;12.42;78.24;96742.78;5001794;28;20593;-68
2021/09/22 08:02:01;;;;;;;10.93;10.03;;;;;;;12.64;77.10;96742.06;5021441;28;20223;-69
2021/09/22 08:04:30;;;;;;;10.00;9.27;;;;;;;12.90;76.72;96741.00;5021227;28;20220;-69
2021/09/22 08:07:01;;;;;;;9.40;8.50;;;;;;;13.16;76.85;96743.34;5022833;28;20233;-69
2021/09/22 08:09:29;;;;;;;9.43;8.77;;;;;;;13.40;76.55;96737.94;5017694;28;20227;-68
2021/09/22 08:11:57;;;;;;;8.73;8.03;;;;;;;13.66;75.28;96742.94;5022961;28;20238;-69
2021/09/22 08:14:36;;;;;;;10.17;9.43;;;;;;;13.90;74.46;96740.09;5017076;28;20331;-69
2021/09/22 08:17:04;;;;;;;8.60;8.00;;;;;;;14.11;74.32;96742.06;5015291;28;20289;-69
2021/09/22 08:19:35;;;;;;;9.13;8.27;;;;;;;14.22;74.11;96743.47;5020949;28;20243;-68
2021/09/22 08:22:04;;;;;;;9.17;8.37;;;;;;;14.29;74.23;96743.59;5015501;28;20257;-69
2021/09/22 08:24:32;;;;;;;7.67;7.10;;;;;;;14.39;72.62;96739.66;5018531;28;20598;-69
2021/09/22 08:27:00;;;;;;;8.73;8.20;;;;;;;14.57;73.00;96738.53;5020213;28;20358;-68
2021/09/22 08:29:29;;;;;;;7.37;6.87;;;;;;;14.71;72.50;96737.69;5020210;28;20256;-69
2021/09/22 08:31:58;;;;;;;6.30;5.90;;;;;;;14.85;71.00;96736.88;5023958;28;20231;-68
2021/09/22 08:34:27;;;;;;;5.83;5.53;;;;;;;15.04;71.08;96736.31;5002660;28;20224;-69
2021/09/22 08:36:56;;;;;;;6.77;6.23;;;;;;;15.28;68.45;96745.81;5022726;28;20643;-69
2021/09/22 08:39:28;;;;;;;6.30;5.90;;;;;;;15.47;64.45;96740.91;5021046;28;20231;-69
2021/09/22 08:41:57;;;;;;;6.80;6.30;;;;;;;15.65;64.81;96746.66;5022162;28;20619;-69
2021/09/22 08:44:25;;;;;;;6.20;5.80;;;;;;;15.70;65.64;96741.59;5020032;28;20362;-69
2021/09/22 08:46:53;;;;;;;6.30;5.90;;;;;;;15.86;65.38;96748.50;5021183;28;20322;-69
2021/09/22 08:49:23;;;;;;;8.33;7.73;;;;;;;15.95;63.27;96736.72;5018363;28;20228;-69
2021/09/22 08:51:52;;;;;;;6.50;6.00;;;;;;;16.24;63.32;96737.56;5015241;28;20652;-69
2021/09/22 08:54:20;;;;;;;6.47;6.07;;;;;;;16.48;62.36;96734.47;5016894;28;20277;-69
2021/09/22 08:56:49;;;;;;;6.20;5.70;;;;;;;16.72;62.30;96731.38;5023862;28;20227;-69
2021/09/22 08:59:17;;;;;;;6.47;6.07;;;;;;;17.00;61.70;96727.84;5020302;28;20639;-69
2021/09/22 09:02:07;;;;;;;5.47;4.97;;;;;;;17.40;61.33;96725.34;5019813;28;20299;-69
2021/09/22 09:04:38;;;;;;;5.07;4.80;;;;;;;17.67;60.32;96732.41;5019375;28;20833;-69
2021/09/22 09:07:06;;;;;;;7.53;7.03;;;;;;;17.96;60.03;96725.09;5020068;28;20259;-69
2021/09/22 09:09:36;;;;;;;10.57;9.80;;;;;;;18.10;57.73;96721.38;5014026;28;20211;-69
2021/09/22 09:12:14;;;;;;;6.67;6.27;;;;;;;18.12;56.98;96714.81;5017551;28;20274;-69
2021/09/22 09:14:51;;;;;;;6.27;5.77;;;;;;;18.23;57.27;96721.41;5016818;28;20228;-69
2021/09/22 09:17:36;;;;;;;4.90;4.60;;;;;;;18.56;57.48;96720.53;5016182;28;20254;-69
2021/09/22 09:20:14;;;;;;;5.40;4.90;;;;;;;18.75;54.60;96719.75;5014521;28;20228;-69
2021/09/22 09:22:52;;;;;;;5.10;4.80;;;;;;;18.79;53.42;96720.94;5021416;28;20227;-70
2021/09/22 09:25:24;;;;;;;4.47;4.23;;;;;;;18.75;51.54;96714.41;5017661;28;20285;-69
2021/09/22 09:27:53;;;;;;;4.60;4.23;;;;;;;18.80;51.68;96713.75;5021912;28;20220;-70
2021/09/22 09:30:23;;;;;;;4.73;4.47;;;;;;;18.98;51.92;96712.03;5020560;28;20630;-70
2021/09/22 09:32:52;;;;;;;4.80;4.60;;;;;;;19.18;53.26;96708.47;5017533;28;20216;-70
2021/09/22 09:35:24;;;;;;;3.63;3.43;;;;;;;19.47;52.41;96715.94;5016132;28;20320;-69
2021/09/22 09:37:54;;;;;;;4.40;4.00;;;;;;;19.57;50.41;96713.69;5001153;28;20223;-69
2021/09/22 09:40:26;;;;;;;4.10;3.87;;;;;;;19.82;52.27;96711.03;5020024;28;20742;-70
2021/09/22 09:42:55;;;;;;;3.83;3.63;;;;;;;19.97;51.18;96704.56;5018160;28;20232;-70
2021/09/22 09:45:25;;;;;;;4.27;3.97;;;;;;;20.01;48.71;96703.91;5017088;28;20255;-69
2021/09/22 09:48:06;;;;;;;3.10;2.90;;;;;;;19.97;48.07;96696.53;5020108;28;20215;-70
2021/09/22 09:50:41;;;;;;;2.83;2.73;;;;;;;20.03;49.17;96693.81;5018636;28;20537;-69
2021/09/22 09:53:11;;;;;;;3.77;3.47;;;;;;;20.20;50.37;96701.28;5020556;28;20211;-69
2021/09/22 09:55:41;;;;;;;3.10;2.97;;;;;;;20.49;50.05;96695.31;5014826;28;20310;-70
2021/09/22 09:58:10;;;;;;;2.67;2.57;;;;;;;20.83;51.40;96701.13;5009905;28;20224;-69
2021/09/22 10:00:45;;;;;;;3.80;3.50;;;;;;;21.19;49.20;96693.09;5017829;28;20250;-70
2021/09/22 10:03:15;;;;;;;3.00;2.90;;;;;;;21.31;49.36;96703.13;5020783;28;20231;-70
2021/09/22 10:05:45;;;;;;;2.13;2.03;;;;;;;21.28;46.43;96699.81;5018116;28;20227;-69
2021/09/22 10:08:14;;;;;;;2.10;2.00;;;;;;;21.28;47.99;96699.81;5018374;28;20274;-70
2021/09/22 10:10:44;;;;;;;2.40;2.23;;;;;;;21.21;45.50;96693.69;5000655;28;20250;-70
2021/09/22 10:13:13;;;;;;;3.90;2.80;;;;;;;21.32;46.71;96688.66;5019851;28;20732;-70
2021/09/22 10:15:43;;;;;;;2.50;2.40;;;;;;;21.45;45.32;96688.47;5018376;28;20401;-70
2021/09/22 10:18:13;;;;;;;2.13;2.03;;;;;;;21.59;45.86;96689.94;5015553;28;20632;-69
2021/09/22 10:20:42;;;;;;;2.60;2.40;;;;;;;21.83;45.51;96690.81;5017390;28;20230;-69
2021/09/22 10:23:22;;;;;;;1.97;1.80;;;;;;;22.06;45.71;96684.69;5017774;28;20287;-70
2021/09/22 10:25:51;;;;;;;2.00;1.77;;;;;;;22.09;45.33;96678.88;5018349;28;20236;-70
2021/09/22 10:28:33;;;;;;;1.50;1.40;;;;;;;22.29;45.60;96690.09;5013390;28;20225;-70
2021/09/22 10:31:01;;;;;;;1.83;1.70;;;;;;;22.35;44.20;96674.91;5009483;28;20220;-70
2021/09/22 10:33:33;;;;;;;1.93;1.73;;;;;;;22.66;46.08;96679.13;5019143;28;20224;-70
2021/09/22 10:36:07;;;;;;;2.77;2.60;;;;;;;22.87;44.33;96675.88;5015226;28;20212;-69
2021/09/22 10:38:43;;;;;;;1.97;1.87;;;;;;;23.27;45.47;96672.38;5018162;28;20226;-70
2021/09/22 10:41:24;;;;;;;3.17;2.43;;;;;;;23.56;44.76;96668.63;5020388;28;20273;-69
2021/09/22 10:43:52;;;;;;;2.43;2.27;;;;;;;23.75;43.62;96673.84;5012126;28;20230;-70
2021/09/22 10:46:21;;;;;;;1.93;1.83;;;;;;;23.95;43.19;96670.66;4995859;28;20891;-70
2021/09/22 10:49:01;;;;;;;2.53;2.43;;;;;;;24.06;43.11;96672.50;5013868;28;20267;-70
2021/09/22 10:51:31;;;;;;;1.73;1.63;;;;;;;23.96;43.00;96675.84;5017534;28;20295;-70
2021/09/22 10:54:10;;;;;;;2.63;2.43;;;;;;;23.42;43.02;96661.91;5017593;28;20226;-70
2021/09/22 10:56:56;;;;;;;1.67;1.57;;;;;;;23.55;43.46;96669.69;5013242;28;20767;-70
2021/09/22 10:59:30;;;;;;;1.90;1.80;;;;;;;23.45;43.85;96672.19;5011703;28;20783;-70
2021/09/22 11:01:59;;;;;;;9.30;2.50;;;;;;;23.62;44.34;96671.44;5016791;28;20223;-70
2021/09/22 11:04:58;;;;;;;2.57;2.37;;;;;;;23.78;42.15;96665.28;5018458;28;20227;-70
2021/09/22 11:07:56;;;;;;;1.90;1.80;;;;;;;23.79;44.89;96656.13;5020469;28;20418;-70
2021/09/22 11:10:34;;;;;;;2.33;2.13;;;;;;;23.81;43.09;96654.00;5018587;28;20243;-70
2021/09/22 11:13:38;;;;;;;2.43;2.33;;;;;;;23.72;44.34;96647.38;5015667;28;20536;-70
2021/09/22 11:16:16;;;;;;;3.63;2.03;;;;;;;23.90;44.33;96644.44;5013385;28;20223;-70
2021/09/22 11:18:51;;;;;;;2.20;2.10;;;;;;;23.95;43.60;96644.53;5014963;28;20236;-70
2021/09/22 11:21:22;;;;;;;1.77;1.67;;;;;;;23.67;44.91;96636.50;5014740;28;20259;-70
2021/09/22 11:23:52;;;;;;;1.73;1.67;;;;;;;23.40;44.85;96641.63;5011560;28;20304;-70
2021/09/22 11:26:24;;;;;;;2.30;2.20;;;;;;;23.08;45.53;96634.03;5016716;28;20865;-70
2021/09/22 11:28:56;;;;;;;2.77;2.57;;;;;;;22.84;47.06;96633.25;5012828;28;20220;-70
2021/09/22 11:31:25;;;;;;;3.60;2.13;;;;;;;22.51;47.15;96633.06;5014217;28;20223;-70
2021/09/22 11:33:58;;;;;;;2.17;2.07;;;;;;;22.05;46.19;96626.59;5018277;28;20238;-70
2021/09/22 11:36:28;;;;;;;2.20;2.10;;;;;;;21.80;48.10;96626.78;5019414;28;21763;-70
2021/09/22 11:38:56;;;;;;;2.00;1.90;;;;;;;21.62;48.38;96619.63;5016649;28;20689;-70
2021/09/22 11:41:34;;;;;;;3.33;3.13;;;;;;;21.59;48.30;96620.09;5014955;28;20483;-69
2021/09/22 11:44:07;;;;;;;2.77;2.67;;;;;;;21.17;49.86;96621.88;5011961;28;20223;-70
2021/09/22 11:46:35;;;;;;;7.73;2.90;;;;;;;21.00;51.64;96616.31;5013663;28;20315;-69
2021/09/22 11:49:05;;;;;;;1.90;1.80;;;;;;;21.01;51.88;96612.59;5014880;28;20231;-69
2021/09/22 11:51:33;;;;;;;3.20;2.17;;;;;;;20.84;51.11;96608.88;5011318;28;20500;-69
2021/09/22 11:54:01;;;;;;;2.90;2.70;;;;;;;20.65;52.01;96616.13;5018335;28;20243;-69
2021/09/22 11:56:31;;;;;;;3.00;2.40;;;;;;;20.69;51.77;96620.81;5019616;28;20313;-69
2021/09/22 11:58:58;;;;;;;2.00;1.90;;;;;;;20.66;51.97;96621.25;5018648;28;20319;-69
2021/09/22 12:01:27;;;;;;;2.70;2.43;;;;;;;20.67;50.78;96612.19;5006074;28;20301;-69
2021/09/22 12:03:55;;;;;;;2.83;2.63;;;;;;;20.65;50.19;96608.06;5016037;28;20224;-69
2021/09/22 12:06:24;;;;;;;2.57;2.47;;;;;;;20.57;51.12;96595.78;5014485;28;20232;-70